Wetterdaten: Donnerstag, 20.06.2013
Datum Zeit Temperatur Luftfeuchte Luftdruck Regen Wind Richtung Richtung Taupunkt Windchill Windben
20.06.2013 00:00 19,2 C 71 % 1018,8 hPa 0,0 l/m 0,0 km/h (0 Bft) O-SO 112 13,8 C 19,5 C 0,0 km/h (0 Bft)
20.06.2013 00:05 19,2 C 71 % 1018,9 hPa 0,0 l/m 0,0 km/h (0 Bft) O 90 13,8 C 19,4 C 0,0 km/h (0 Bft)
20.06.2013 00:11 19,2 C 72 % 1018,9 hPa 0,0 l/m 0,0 km/h (0 Bft) SO 135 14,0 C 19,3 C 0,0 km/h (0 Bft)
20.06.2013 00:15 19,2 C 72 % 1018,9 hPa 0,0 l/m 0,0 km/h (0 Bft) SO 135 14,0 C 19,3 C 0,0 km/h (0 Bft)
20.06.2013 00:20 19,0 C 72 % 1018,9 hPa 0,0 l/m 0,0 km/h (0 Bft) S-SW 202 13,8 C 19,3 C 0,0 km/h (0 Bft)
20.06.2013 00:25 19,0 C 72 % 1018,6 hPa 0,0 l/m 0,0 km/h (0 Bft) O-SO 112 13,8 C 19,2 C 0,0 km/h (0 Bft)
20.06.2013 00:30 19,0 C 72 % 1018,6 hPa 0,0 l/m 0,0 km/h (0 Bft) O 90 13,8 C 19,2 C 1,6 km/h (1 Bft)
20.06.2013 00:35 19,0 C 72 % 1018,6 hPa 0,0 l/m 0,3 km/h (0 Bft) O-SO 112 13,8 C 19,3 C 3,4 km/h (1 Bft)
20.06.2013 00:40 19,1 C 73 % 1018,6 hPa 0,0 l/m 0,8 km/h (0 Bft) SO 135 14,1 C 19,4 C 5,0 km/h (1 Bft)
20.06.2013 00:45 19,3 C 73 % 1018,6 hPa 0,0 l/m 1,1 km/h (1 Bft) O 90 14,3 C 19,6 C 0,0 km/h (0 Bft)
20.06.2013 00:50 19,2 C 72 % 1018,6 hPa 0,0 l/m 0,8 km/h (0 Bft) S 180 14,0 C 19,6 C 0,0 km/h (0 Bft)
20.06.2013 00:55 19,0 C 72 % 1018,6 hPa 0,0 l/m 0,3 km/h (0 Bft) O 90 13,8 C 19,5 C 0,0 km/h (0 Bft)
20.06.2013 01:00 18,8 C 72 % 1018,6 hPa 0,0 l/m 0,0 km/h (0 Bft) O 90 13,6 C 19,1 C 0,0 km/h (0 Bft)
20.06.2013 01:05 18,7 C 72 % 1018,8 hPa 0,0 l/m 0,2 km/h (0 Bft) O 90 13,5 C 19,0 C 0,0 km/h (0 Bft)
20.06.2013 01:10 18,6 C 73 % 1018,8 hPa 0,0 l/m 0,2 km/h (0 Bft) O-NO 67 13,7 C 18,8 C 0,0 km/h (0 Bft)
20.06.2013 01:15 18,5 C 73 % 1018,8 hPa 0,0 l/m 0,0 km/h (0 Bft) SO 135 13,6 C 18,7 C 0,0 km/h (0 Bft)
20.06.2013 01:20 18,5 C 73 % 1018,8 hPa 0,0 l/m 0,0 km/h (0 Bft) O-SO 112 13,6 C 18,5 C 0,0 km/h (0 Bft)
20.06.2013 01:25 18,4 C 73 % 1018,5 hPa 0,0 l/m 0,0 km/h (0 Bft) S 180 13,5 C 18,4 C 0,0 km/h (0 Bft)
20.06.2013 01:30 18,3 C 73 % 1018,5 hPa 0,0 l/m 0,0 km/h (0 Bft) O-SO 112 13,4 C 18,2 C 0,0 km/h (0 Bft)
20.06.2013 01:35 18,3 C 73 % 1018,5 hPa 0,0 l/m 0,0 km/h (0 Bft) O-SO 112 13,4 C 18,2 C 0,0 km/h (0 Bft)
20.06.2013 01:40 18,1 C 73 % 1018,5 hPa 0,0 l/m 0,0 km/h (0 Bft) S-SW 202 13,2 C 18,1 C 0,0 km/h (0 Bft)
20.06.2013 01:45 17,9 C 74 % 1018,2 hPa 0,0 l/m 0,0 km/h (0 Bft) S 180 13,2 C 18,0 C 0,0 km/h (0 Bft)
20.06.2013 01:50 17,6 C 74 % 1018,2 hPa 0,0 l/m 0,0 km/h (0 Bft) S 180 12,9 C 17,8 C 0,0 km/h (0 Bft)
20.06.2013 01:55 17,7 C 76 % 1018,2 hPa 0,0 l/m 0,0 km/h (0 Bft) S 180 13,4 C 17,6 C 0,0 km/h (0 Bft)
20.06.2013 02:00 17,7 C 75 % 1018,2 hPa 0,0 l/m 0,2 km/h (0 Bft) O-SO 112 13,2 C 17,6 C 0,0 km/h (0 Bft)
20.06.2013 02:05 18,0 C 75 % 1018,1 hPa 0,0 l/m 0,2 km/h (0 Bft) NO 45 13,5 C 17,7 C 1,6 km/h (1 Bft)
20.06.2013 02:11 18,3 C 73 % 1018,1 hPa 0,0 l/m 0,3 km/h (0 Bft) O 90 13,4 C 17,9 C 2,1 km/h (1 Bft)
20.06.2013 02:15 18,4 C 73 % 1018,1 hPa 0,0 l/m 0,3 km/h (0 Bft) O-SO 112 13,5 C 18,0 C 0,0 km/h (0 Bft)
20.06.2013 02:20 18,1 C 73 % 1018,1 hPa 0,0 l/m 0,2 km/h (0 Bft) O-SO 112 13,2 C 18,0 C 0,0 km/h (0 Bft)
20.06.2013 02:25 18,0 C 73 % 1018,1 hPa 0,0 l/m 0,2 km/h (0 Bft) O 90 13,1 C 18,0 C 0,0 km/h (0 Bft)
20.06.2013 02:30 18,0 C 74 % 1018,1 hPa 0,0 l/m 0,3 km/h (0 Bft) O 90 13,3 C 17,8 C 1,8 km/h (1 Bft)
20.06.2013 02:35 17,9 C 73 % 1018,1 hPa 0,0 l/m 0,8 km/h (0 Bft) O 90 13,0 C 17,8 C 2,1 km/h (1 Bft)
20.06.2013 02:40 18,0 C 73 % 1018,1 hPa 0,0 l/m 1,3 km/h (1 Bft) O 90 13,1 C 17,8 C 1,9 km/h (1 Bft)
20.06.2013 02:45 18,2 C 73 % 1017,9 hPa 0,0 l/m 1,6 km/h (1 Bft) O 90 13,3 C 17,8 C 2,4 km/h (1 Bft)
20.06.2013 02:50 18,3 C 73 % 1017,9 hPa 0,0 l/m 2,4 km/h (1 Bft) O-SO 112 13,4 C 17,9 C 2,9 km/h (1 Bft)
20.06.2013 02:55 18,3 C 72 % 1017,9 hPa 0,0 l/m 2,4 km/h (1 Bft) O-NO 67 13,2 C 18,0 C 1,9 km/h (1 Bft)
20.06.2013 03:00 17,8 C 72 % 1017,9 hPa 0,0 l/m 1,0 km/h (0 Bft) O 90 12,7 C 17,8 C 0,0 km/h (0 Bft)
20.06.2013 03:05 17,6 C 72 % 1017,8 hPa 0,0 l/m 0,2 km/h (0 Bft) NO 45 12,5 C 17,7 C 0,0 km/h (0 Bft)
20.06.2013 03:11 17,0 C 73 % 1017,8 hPa 0,0 l/m 0,0 km/h (0 Bft) SO 135 12,1 C 17,4 C 0,0 km/h (0 Bft)
20.06.2013 03:15 16,9 C 75 % 1017,8 hPa 0,0 l/m 0,0 km/h (0 Bft) NO 45 12,4 C 17,2 C 0,0 km/h (0 Bft)
20.06.2013 03:20 16,7 C 77 % 1017,8 hPa 0,0 l/m 0,0 km/h (0 Bft) S-SO 157 12,6 C 16,9 C 0,0 km/h (0 Bft)
20.06.2013 03:25 16,5 C 77 % 1017,8 hPa 0,0 l/m 0,0 km/h (0 Bft) S 180 12,5 C 16,7 C 0,0 km/h (0 Bft)
20.06.2013 03:30 16,5 C 78 % 1017,8 hPa 0,0 l/m 0,2 km/h (0 Bft) NO 45 12,6 C 16,4 C 0,0 km/h (0 Bft)
20.06.2013 03:35 16,4 C 78 % 1017,8 hPa 0,0 l/m 0,2 km/h (0 Bft) O-SO 112 12,6 C 16,3 C 0,0 km/h (0 Bft)
20.06.2013 03:40 16,4 C 78 % 1017,8 hPa 0,0 l/m 0,0 km/h (0 Bft) S-SW 202 12,6 C 16,4 C 0,0 km/h (0 Bft)
20.06.2013 03:45 16,3 C 79 % 1017,6 hPa 0,0 l/m 0,0 km/h (0 Bft) S-SW 202 12,6 C 16,3 C 0,0 km/h (0 Bft)
20.06.2013 03:50 16,0 C 78 % 1017,6 hPa 0,0 l/m 0,0 km/h (0 Bft) O 90 12,2 C 16,2 C 0,0 km/h (0 Bft)
20.06.2013 03:55 16,7 C 77 % 1017,6 hPa 0,0 l/m 0,8 km/h (0 Bft) O 90 12,6 C 16,4 C 3,4 km/h (1 Bft)
20.06.2013 04:00 18,4 C 70 % 1017,6 hPa 0,0 l/m 1,9 km/h (1 Bft) O 90 12,8 C 17,4 C 2,6 km/h (1 Bft)
20.06.2013 04:05 18,7 C 68 % 1017,7 hPa 0,0 l/m 2,3 km/h (1 Bft) O-SO 112 12,7 C 18,1 C 2,9 km/h (1 Bft)
20.06.2013 04:10 18,9 C 65 % 1017,7 hPa 0,0 l/m 1,4 km/h (1 Bft) O-NO 67 12,2 C 18,6 C 2,3 km/h (1 Bft)
20.06.2013 04:15 18,8 C 65 % 1017,7 hPa 0,0 l/m 1,1 km/h (1 Bft) O 90 12,1 C 18,7 C 1,6 km/h (1 Bft)
20.06.2013 04:20 17,3 C 68 % 1017,7 hPa 0,0 l/m 0,5 km/h (0 Bft) NO 45 11,3 C 18,5 C 0,0 km/h (0 Bft)
20.06.2013 04:25 16,9 C 70 % 1017,8 hPa 0,0 l/m 0,0 km/h (0 Bft) O-NO 67 11,4 C 18,0 C 0,0 km/h (0 Bft)
20.06.2013 04:30 16,5 C 71 % 1017,8 hPa 0,0 l/m 0,0 km/h (0 Bft) O 90 11,2 C 17,6 C 0,0 km/h (0 Bft)
20.06.2013 04:35 16,3 C 73 % 1017,8 hPa 0,0 l/m 0,0 km/h (0 Bft) O 90 11,4 C 17,1 C 0,0 km/h (0 Bft)
20.06.2013 04:40 16,2 C 73 % 1017,8 hPa 0,0 l/m 0,0 km/h (0 Bft) NO 45 11,4 C 16,6 C 0,0 km/h (0 Bft)
20.06.2013 04:45 16,1 C 73 % 1017,8 hPa 0,0 l/m 0,0 km/h (0 Bft) O-NO 67 11,3 C 16,4 C 0,0 km/h (0 Bft)
20.06.2013 04:50 15,9 C 74 % 1017,8 hPa 0,0 l/m 0,0 km/h (0 Bft) O-SO 112 11,3 C 16,2 C 0,0 km/h (0 Bft)
20.06.2013 04:55 15,8 C 75 % 1017,8 hPa 0,0 l/m 0,0 km/h (0 Bft) NO 45 11,4 C 16,1 C 0,0 km/h (0 Bft)
20.06.2013 05:00 15,7 C 75 % 1017,8 hPa 0,0 l/m 0,0 km/h (0 Bft) NO 45 11,3 C 15,9 C 0,0 km/h (0 Bft)
20.06.2013 05:05 16,1 C 75 % 1017,6 hPa 0,0 l/m 0,2 km/h (0 Bft) NO 45 11,7 C 16,1 C 0,0 km/h (0 Bft)
20.06.2013 05:11 17,0 C 72 % 1017,6 hPa 0,0 l/m 0,3 km/h (0 Bft) NO 45 11,9 C 16,8 C 2,4 km/h (1 Bft)
20.06.2013 05:15 17,1 C 71 % 1017,6 hPa 0,0 l/m 0,5 km/h (0 Bft) NO 45 11,8 C 17,3 C 1,8 km/h (1 Bft)
20.06.2013 05:20 16,8 C 70 % 1017,6 hPa 0,0 l/m 0,5 km/h (0 Bft) NO 45 11,3 C 17,6 C 0,0 km/h (0 Bft)
20.06.2013 05:25 16,8 C 70 % 1017,8 hPa 0,0 l/m 0,2 km/h (0 Bft) NO 45 11,3 C 17,6 C 0,0 km/h (0 Bft)
20.06.2013 05:30 17,6 C 69 % 1017,8 hPa 0,0 l/m 0,3 km/h (0 Bft) NO 45 11,8 C 18,0 C 0,0 km/h (0 Bft)
20.06.2013 05:35 18,2 C 67 % 1017,8 hPa 0,0 l/m 0,6 km/h (0 Bft) NO 45 12,0 C 18,3 C 1,6 km/h (1 Bft)
20.06.2013 05:40 18,1 C 66 % 1017,8 hPa 0,0 l/m 0,6 km/h (0 Bft) NO 45 11,6 C 18,6 C 1,8 km/h (1 Bft)
20.06.2013 05:45 18,1 C 66 % 1017,7 hPa 0,0 l/m 0,5 km/h (0 Bft) NO 45 11,6 C 18,8 C 1,9 km/h (1 Bft)
20.06.2013 05:50 18,1 C 66 % 1017,7 hPa 0,0 l/m 0,3 km/h (0 Bft) N 360 11,6 C 19,4 C 0,0 km/h (0 Bft)
20.06.2013 05:55 18,2 C 65 % 1017,7 hPa 0,0 l/m 0,2 km/h (0 Bft) N-NO 22 11,5 C 19,4 C 0,0 km/h (0 Bft)
20.06.2013 06:00 18,7 C 65 % 1017,7 hPa 0,0 l/m 0,2 km/h (0 Bft) NO 45 12,0 C 19,6 C 1,6 km/h (1 Bft)
20.06.2013 06:05 18,9 C 65 % 1017,6 hPa 0,0 l/m 0,2 km/h (0 Bft) N-NW 337 12,2 C 20,3 C 0,0 km/h (0 Bft)
20.06.2013 06:10 20,5 C 61 % 1017,6 hPa 0,0 l/m 0,5 km/h (0 Bft) NO 45 12,7 C 21,1 C 1,8 km/h (1 Bft)
20.06.2013 06:15 21,1 C 61 % 1017,6 hPa 0,0 l/m 0,3 km/h (0 Bft) N-NW 337 13,3 C 21,7 C 0,0 km/h (0 Bft)
20.06.2013 06:20 21,8 C 61 % 1017,6 hPa 0,0 l/m 0,5 km/h (0 Bft) W-NW 292 13,9 C 22,4 C 0,0 km/h (0 Bft)
20.06.2013 06:25 22,1 C 59 % 1017,7 hPa 0,0 l/m 0,6 km/h (0 Bft) SO 135 13,7 C 23,0 C 1,8 km/h (1 Bft)
20.06.2013 06:30 22,8 C 58 % 1017,7 hPa 0,0 l/m 0,5 km/h (0 Bft) O-NO 67 14,1 C 23,6 C 2,6 km/h (1 Bft)
20.06.2013 06:35 23,3 C 57 % 1017,7 hPa 0,0 l/m 0,5 km/h (0 Bft) N-NO 22 14,3 C 24,0 C 0,0 km/h (0 Bft)
20.06.2013 06:40 24,1 C 54 % 1017,7 hPa 0,0 l/m 0,3 km/h (0 Bft) NW 315 14,2 C 24,7 C 0,0 km/h (0 Bft)
20.06.2013 06:45 24,5 C 54 % 1017,5 hPa 0,0 l/m 0,5 km/h (0 Bft) NO 45 14,6 C 25,0 C 0,0 km/h (0 Bft)
20.06.2013 06:50 25,0 C 51 % 1017,5 hPa 0,0 l/m 0,5 km/h (0 Bft) N 360 14,1 C 25,6 C 0,0 km/h (0 Bft)
20.06.2013 06:55 25,7 C 52 % 1017,5 hPa 0,0 l/m 0,2 km/h (0 Bft) NO 45 15,1 C 25,9 C 2,3 km/h (1 Bft)
20.06.2013 07:00 25,2 C 52 % 1017,5 hPa 0,0 l/m 0,2 km/h (0 Bft) NW 315 14,6 C 25,9 C 0,0 km/h (0 Bft)
20.06.2013 07:05 25,0 C 52 % 1017,6 hPa 0,0 l/m 0,3 km/h (0 Bft) O 90 14,4 C 26,0 C 1,8 km/h (1 Bft)
20.06.2013 07:11 24,2 C 53 % 1017,6 hPa 0,0 l/m 0,3 km/h (0 Bft) O-NO 67 14,0 C 25,8 C 1,8 km/h (1 Bft)
20.06.2013 07:15 23,5 C 53 % 1017,6 hPa 0,0 l/m 0,6 km/h (0 Bft) NO 45 13,4 C 25,0 C 2,1 km/h (1 Bft)
20.06.2013 07:20 26,9 C 50 % 1017,6 hPa 0,0 l/m 0,6 km/h (0 Bft) NO 45 15,6 C 25,7 C 1,8 km/h (1 Bft)
20.06.2013 07:25 27,9 C 49 % 1017,6 hPa 0,0 l/m 0,5 km/h (0 Bft) N-NO 22 16,2 C 26,7 C 0,0 km/h (0 Bft)
20.06.2013 07:30 28,2 C 43 % 1017,6 hPa 0,0 l/m 0,3 km/h (0 Bft) NO 45 14,4 C 28,0 C 0,0 km/h (0 Bft)
20.06.2013 07:35 28,2 C 45 % 1017,6 hPa 0,0 l/m 0,3 km/h (0 Bft) NO 45 15,1 C 28,6 C 0,0 km/h (0 Bft)
20.06.2013 07:40 28,6 C 43 % 1017,6 hPa 0,0 l/m 0,3 km/h (0 Bft) N-NO 22 14,8 C 29,3 C 0,0 km/h (0 Bft)
20.06.2013 07:45 29,2 C 44 % 1017,8 hPa 0,0 l/m 0,5 km/h (0 Bft) O 90 15,7 C 29,8 C 1,6 km/h (1 Bft)
20.06.2013 07:50 30,1 C 42 % 1017,8 hPa 0,0 l/m 0,5 km/h (0 Bft) W-NW 292 15,7 C 30,2 C 2,3 km/h (1 Bft)
20.06.2013 07:55 30,0 C 41 % 1017,8 hPa 0,0 l/m 0,5 km/h (0 Bft) NO 45 15,3 C 30,6 C 0,0 km/h (0 Bft)
20.06.2013 08:00 30,4 C 41 % 1017,8 hPa 0,0 l/m 0,5 km/h (0 Bft) N-NW 337 15,6 C 31,3 C 0,0 km/h (0 Bft)
20.06.2013 08:05 30,9 C 41 % 1017,7 hPa 0,0 l/m 0,3 km/h (0 Bft) N-NO 22 16,1 C 31,7 C 0,0 km/h (0 Bft)
20.06.2013 08:10 31,2 C 40 % 1017,7 hPa 0,0 l/m 0,3 km/h (0 Bft) O-NO 67 16,0 C 32,1 C 0,0 km/h (0 Bft)
20.06.2013 08:15 31,9 C 39 % 1017,7 hPa 0,0 l/m 0,3 km/h (0 Bft) W 270 16,2 C 32,6 C 0,0 km/h (0 Bft)
20.06.2013 08:20 32,3 C 42 % 1017,7 hPa 0,0 l/m 0,3 km/h (0 Bft) W 270 17,7 C 33,1 C 0,0 km/h (0 Bft)
20.06.2013 08:25 31,8 C 42 % 1018,0 hPa 0,0 l/m 0,2 km/h (0 Bft) NO 45 17,3 C 33,5 C 0,0 km/h (0 Bft)
20.06.2013 08:30 31,7 C 39 % 1018,0 hPa 0,0 l/m 0,2 km/h (0 Bft) N-NW 337 16,0 C 33,8 C 0,0 km/h (0 Bft)
20.06.2013 08:35 31,9 C 39 % 1018,0 hPa 0,0 l/m 0,2 km/h (0 Bft) O-NO 67 16,2 C 33,8 C 0,0 km/h (0 Bft)
20.06.2013 08:40 33,0 C 39 % 1018,0 hPa 0,0 l/m 0,3 km/h (0 Bft) NW 315 17,2 C 34,3 C 0,0 km/h (0 Bft)
20.06.2013 08:45 32,7 C 38 % 1018,1 hPa 0,0 l/m 1,1 km/h (1 Bft) W-SW 247 16,5 C 34,1 C 4,7 km/h (1 Bft)
20.06.2013 08:50 33,1 C 36 % 1018,1 hPa 0,0 l/m 2,4 km/h (1 Bft) W 270 16,0 C 33,4 C 5,3 km/h (1 Bft)
20.06.2013 08:55 32,9 C 38 % 1018,1 hPa 0,0 l/m 2,3 km/h (1 Bft) O-SO 112 16,7 C 33,2 C 0,0 km/h (0 Bft)
20.06.2013 09:00 33,0 C 36 % 1018,1 hPa 0,0 l/m 1,0 km/h (0 Bft) NW 315 15,9 C 34,1 C 1,8 km/h (1 Bft)
20.06.2013 09:05 33,1 C 36 % 1018,4 hPa 0,0 l/m 0,3 km/h (0 Bft) O-NO 67 16,0 C 34,5 C 0,0 km/h (0 Bft)
20.06.2013 09:10 33,0 C 36 % 1018,4 hPa 0,0 l/m 1,3 km/h (1 Bft) W-NW 292 15,9 C 34,3 C 3,5 km/h (1 Bft)
20.06.2013 09:15 32,0 C 37 % 1018,4 hPa 0,0 l/m 2,3 km/h (1 Bft) N-NW 337 15,5 C 33,7 C 0,0 km/h (0 Bft)
20.06.2013 09:20 32,4 C 36 % 1018,4 hPa 0,0 l/m 2,6 km/h (1 Bft) W-NW 292 15,4 C 33,3 C 6,4 km/h (2 Bft)
20.06.2013 09:25 32,4 C 36 % 1018,8 hPa 0,0 l/m 2,4 km/h (1 Bft) N 360 15,4 C 33,1 C 5,6 km/h (1 Bft)
20.06.2013 09:30 32,4 C 36 % 1018,8 hPa 0,0 l/m 2,6 km/h (1 Bft) N-NW 337 15,4 C 32,9 C 3,4 km/h (1 Bft)
20.06.2013 09:35 32,7 C 36 % 1018,8 hPa 0,0 l/m 2,7 km/h (1 Bft) N 360 15,6 C 32,9 C 4,5 km/h (1 Bft)
20.06.2013 09:40 32,3 C 36 % 1018,8 hPa 0,0 l/m 2,7 km/h (1 Bft) S 180 15,3 C 33,0 C 6,6 km/h (2 Bft)
20.06.2013 09:45 31,9 C 35 % 1019,1 hPa 0,0 l/m 2,9 km/h (1 Bft) N-NO 22 14,5 C 33,1 C 3,9 km/h (1 Bft)
20.06.2013 09:50 31,9 C 36 % 1019,1 hPa 0,0 l/m 2,7 km/h (1 Bft) N 360 14,9 C 33,2 C 3,9 km/h (1 Bft)
20.06.2013 09:55 31,9 C 37 % 1019,1 hPa 0,0 l/m 2,6 km/h (1 Bft) NO 45 15,4 C 33,2 C 1,8 km/h (1 Bft)
20.06.2013 10:00 32,2 C 34 % 1019,1 hPa 0,0 l/m 2,1 km/h (1 Bft) N 360 14,3 C 33,5 C 2,3 km/h (1 Bft)
20.06.2013 10:05 32,5 C 34 % 1019,2 hPa 0,0 l/m 1,1 km/h (1 Bft) W-SW 247 14,6 C 34,1 C 0,0 km/h (0 Bft)
20.06.2013 10:10 32,6 C 39 % 1019,2 hPa 0,0 l/m 2,6 km/h (1 Bft) S-SW 202 16,8 C 34,1 C 6,8 km/h (2 Bft)
20.06.2013 10:15 32,4 C 38 % 1019,2 hPa 0,0 l/m 3,9 km/h (1 Bft) W-SW 247 16,2 C 33,7 C 8,4 km/h (2 Bft)
20.06.2013 10:20 32,2 C 36 % 1019,2 hPa 0,0 l/m 4,7 km/h (1 Bft) W 270 15,2 C 33,1 C 9,3 km/h (2 Bft)
20.06.2013 10:25 32,2 C 35 % 1019,2 hPa 0,0 l/m 4,8 km/h (1 Bft) W-SW 247 14,8 C 32,9 C 2,9 km/h (1 Bft)
20.06.2013 10:30 32,4 C 35 % 1019,2 hPa 0,0 l/m 4,3 km/h (1 Bft) S 180 14,9 C 33,2 C 6,1 km/h (2 Bft)
20.06.2013 10:35 32,0 C 33 % 1019,2 hPa 0,0 l/m 4,2 km/h (1 Bft) W-SW 247 13,7 C 33,1 C 6,3 km/h (2 Bft)
20.06.2013 10:40 32,6 C 35 % 1019,2 hPa 0,0 l/m 3,4 km/h (1 Bft) W 270 15,1 C 33,5 C 3,9 km/h (1 Bft)
20.06.2013 10:45 32,8 C 33 % 1019,3 hPa 0,0 l/m 2,7 km/h (1 Bft) W 270 14,4 C 33,8 C 3,7 km/h (1 Bft)
20.06.2013 10:50 32,4 C 30 % 1019,3 hPa 0,0 l/m 3,5 km/h (1 Bft) NW 315 12,6 C 33,8 C 3,9 km/h (1 Bft)
20.06.2013 10:55 32,5 C 29 % 1019,3 hPa 0,0 l/m 4,3 km/h (1 Bft) NO 45 12,1 C 33,6 C 6,1 km/h (2 Bft)
20.06.2013 11:00 32,6 C 31 % 1019,3 hPa 0,0 l/m 4,5 km/h (1 Bft) W-SW 247 13,2 C 33,4 C 5,6 km/h (1 Bft)
20.06.2013 11:05 32,5 C 32 % 1019,4 hPa 0,0 l/m 4,5 km/h (1 Bft) W-SW 247 13,6 C 33,1 C 0,0 km/h (0 Bft)
20.06.2013 11:11 32,9 C 29 % 1019,4 hPa 0,0 l/m 4,5 km/h (1 Bft) S-SW 202 12,5 C 33,2 C 6,4 km/h (2 Bft)
20.06.2013 11:15 32,3 C 29 % 1019,4 hPa 0,0 l/m 3,9 km/h (1 Bft) N-NW 337 12,0 C 33,2 C 6,1 km/h (2 Bft)
20.06.2013 11:20 31,9 C 30 % 1019,4 hPa 0,0 l/m 3,5 km/h (1 Bft) W 270 12,1 C 33,5 C 3,7 km/h (1 Bft)
20.06.2013 11:25 32,4 C 30 % 1019,2 hPa 0,0 l/m 3,1 km/h (1 Bft) W-SW 247 12,6 C 33,5 C 2,6 km/h (1 Bft)
20.06.2013 11:30 33,1 C 28 % 1019,2 hPa 0,0 l/m 2,3 km/h (1 Bft) S-SW 202 12,1 C 34,3 C 2,7 km/h (1 Bft)
20.06.2013 11:35 33,1 C 29 % 1019,2 hPa 0,0 l/m 1,9 km/h (1 Bft) W-SW 247 12,6 C 34,4 C 2,3 km/h (1 Bft)
20.06.2013 11:40 33,0 C 28 % 1019,2 hPa 0,0 l/m 3,2 km/h (1 Bft) W-NW 292 12,0 C 34,3 C 5,8 km/h (2 Bft)
20.06.2013 11:45 32,8 C 28 % 1019,4 hPa 0,0 l/m 2,7 km/h (1 Bft) N 360 11,9 C 34,1 C 3,5 km/h (1 Bft)
20.06.2013 11:50 33,7 C 28 % 1019,4 hPa 0,0 l/m 1,9 km/h (1 Bft) W-NW 292 12,6 C 34,9 C 5,3 km/h (1 Bft)
20.06.2013 11:55 33,4 C 30 % 1019,4 hPa 0,0 l/m 2,6 km/h (1 Bft) S-SW 202 13,4 C 34,7 C 7,7 km/h (2 Bft)
20.06.2013 12:00 32,3 C 29 % 1019,4 hPa 0,0 l/m 4,8 km/h (1 Bft) S 180 12,0 C 33,9 C 9,8 km/h (2 Bft)
20.06.2013 12:05 32,3 C 29 % 1019,5 hPa 0,0 l/m 5,1 km/h (1 Bft) S 180 12,0 C 33,7 C 6,9 km/h (2 Bft)
20.06.2013 12:10 33,3 C 31 % 1019,5 hPa 0,0 l/m 4,2 km/h (1 Bft) SW 225 13,8 C 33,7 C 2,6 km/h (1 Bft)
20.06.2013 12:15 33,1 C 30 % 1019,5 hPa 0,0 l/m 4,0 km/h (1 Bft) W-SW 247 13,2 C 33,8 C 4,2 km/h (1 Bft)
20.06.2013 12:20 33,1 C 30 % 1019,5 hPa 0,0 l/m 4,3 km/h (1 Bft) S 180 13,2 C 33,8 C 3,4 km/h (1 Bft)
20.06.2013 12:25 33,0 C 30 % 1019,1 hPa 0,0 l/m 4,5 km/h (1 Bft) W-SW 247 13,1 C 33,9 C 9,0 km/h (2 Bft)
20.06.2013 12:30 32,9 C 29 % 1019,1 hPa 0,0 l/m 4,7 km/h (1 Bft) W-SW 247 12,5 C 33,7 C 4,0 km/h (1 Bft)
20.06.2013 12:35 32,7 C 32 % 1019,1 hPa 0,0 l/m 4,7 km/h (1 Bft) W-SW 247 13,8 C 33,7 C 3,1 km/h (1 Bft)
20.06.2013 12:40 32,4 C 29 % 1019,1 hPa 0,0 l/m 4,0 km/h (1 Bft) W 270 12,1 C 33,7 C 7,1 km/h (2 Bft)
20.06.2013 12:45 32,3 C 31 % 1019,1 hPa 0,0 l/m 4,7 km/h (1 Bft) S-SW 202 13,0 C 33,3 C 3,1 km/h (1 Bft)
20.06.2013 12:50 32,8 C 31 % 1019,1 hPa 0,0 l/m 4,5 km/h (1 Bft) W-SW 247 13,4 C 33,5 C 4,3 km/h (1 Bft)
20.06.2013 12:55 32,6 C 31 % 1019,1 hPa 0,0 l/m 3,7 km/h (1 Bft) W-SW 247 13,2 C 33,8 C 3,9 km/h (1 Bft)
20.06.2013 13:00 32,2 C 31 % 1019,1 hPa 0,0 l/m 3,7 km/h (1 Bft) SW 225 12,9 C 33,9 C 6,1 km/h (2 Bft)
20.06.2013 13:05 32,4 C 31 % 1019,0 hPa 0,0 l/m 4,0 km/h (1 Bft) S 180 13,1 C 33,9 C 6,1 km/h (2 Bft)
20.06.2013 13:11 32,6 C 32 % 1019,0 hPa 0,0 l/m 4,3 km/h (1 Bft) S-SW 202 13,7 C 33,9 C 6,1 km/h (2 Bft)
20.06.2013 13:15 32,8 C 32 % 1019,0 hPa 0,0 l/m 3,7 km/h (1 Bft) W-SW 247 13,9 C 34,2 C 4,8 km/h (1 Bft)
20.06.2013 13:20 33,0 C 31 % 1019,0 hPa 0,0 l/m 3,2 km/h (1 Bft) S-SW 202 13,6 C 34,6 C 5,1 km/h (1 Bft)
20.06.2013 13:25 33,0 C 30 % 1019,1 hPa 0,0 l/m 3,5 km/h (1 Bft) S-SW 202 13,1 C 34,6 C 3,9 km/h (1 Bft)
20.06.2013 13:30 32,6 C 29 % 1019,1 hPa 0,0 l/m 4,8 km/h (1 Bft) S-SW 202 12,2 C 34,3 C 11,1 km/h (2 Bft)
20.06.2013 13:35 33,0 C 30 % 1019,1 hPa 0,0 l/m 4,2 km/h (1 Bft) S 180 13,1 C 34,5 C 4,5 km/h (1 Bft)
20.06.2013 13:40 32,9 C 31 % 1019,1 hPa 0,0 l/m 3,7 km/h (1 Bft) S-SW 202 13,5 C 34,6 C 2,3 km/h (1 Bft)
20.06.2013 13:45 32,8 C 32 % 1018,8 hPa 0,0 l/m 4,0 km/h (1 Bft) N 360 13,9 C 34,6 C 0,0 km/h (0 Bft)
20.06.2013 13:50 32,7 C 31 % 1018,8 hPa 0,0 l/m 4,3 km/h (1 Bft) NW 315 13,3 C 34,6 C 4,0 km/h (1 Bft)
20.06.2013 13:55 32,7 C 32 % 1018,8 hPa 0,0 l/m 4,7 km/h (1 Bft) W-SW 247 13,8 C 34,6 C 5,5 km/h (1 Bft)
20.06.2013 14:00 32,9 C 31 % 1018,8 hPa 0,0 l/m 4,8 km/h (1 Bft) W-SW 247 13,5 C 34,3 C 5,1 km/h (1 Bft)
20.06.2013 14:05 32,8 C 31 % 1018,8 hPa 0,0 l/m 4,5 km/h (1 Bft) N-NO 22 13,4 C 34,5 C 3,7 km/h (1 Bft)
20.06.2013 14:10 32,3 C 32 % 1018,8 hPa 0,0 l/m 3,1 km/h (1 Bft) W-SW 247 13,5 C 35,3 C 7,7 km/h (2 Bft)
20.06.2013 14:15 32,9 C 31 % 1018,8 hPa 0,0 l/m 3,2 km/h (1 Bft) W-NW 292 13,5 C 35,3 C 6,0 km/h (2 Bft)
20.06.2013 14:20 33,0 C 30 % 1018,8 hPa 0,0 l/m 4,0 km/h (1 Bft) N 360 13,1 C 35,3 C 2,7 km/h (1 Bft)
20.06.2013 14:25 32,8 C 31 % 1018,6 hPa 0,0 l/m 4,0 km/h (1 Bft) N-NW 337 13,4 C 35,1 C 7,9 km/h (2 Bft)
20.06.2013 14:30 30,2 C 33 % 1018,6 hPa 0,0 l/m 3,9 km/h (1 Bft) W-NW 292 12,1 C 33,7 C 3,1 km/h (1 Bft)
20.06.2013 14:35 29,4 C 35 % 1018,6 hPa 0,0 l/m 3,7 km/h (1 Bft) NW 315 12,3 C 32,3 C 3,9 km/h (1 Bft)
20.06.2013 14:40 28,9 C 36 % 1018,6 hPa 0,0 l/m 3,7 km/h (1 Bft) W 270 12,3 C 31,0 C 4,2 km/h (1 Bft)
20.06.2013 14:45 28,2 C 38 % 1017,9 hPa 0,0 l/m 2,9 km/h (1 Bft) S-SO 157 12,5 C 30,0 C 1,6 km/h (1 Bft)
20.06.2013 14:50 27,1 C 44 % 1017,9 hPa 0,0 l/m 0,5 km/h (0 Bft) NO 45 13,8 C 28,8 C 0,0 km/h (0 Bft)
20.06.2013 14:55 27,0 C 48 % 1017,9 hPa 0,0 l/m 0,3 km/h (0 Bft) O 90 15,0 C 28,7 C 2,9 km/h (1 Bft)
20.06.2013 15:00 27,9 C 49 % 1017,9 hPa 0,0 l/m 1,9 km/h (1 Bft) O-SO 112 16,2 C 28,5 C 1,8 km/h (1 Bft)
20.06.2013 15:05 29,8 C 47 % 1017,9 hPa 0,0 l/m 2,7 km/h (1 Bft) SO 135 17,2 C 29,8 C 7,7 km/h (2 Bft)
20.06.2013 15:10 28,5 C 47 % 1017,9 hPa 0,0 l/m 3,1 km/h (1 Bft) S 180 16,1 C 30,3 C 2,6 km/h (1 Bft)
20.06.2013 15:15 28,2 C 48 % 1017,9 hPa 0,0 l/m 3,2 km/h (1 Bft) S 180 16,1 C 30,0 C 4,0 km/h (1 Bft)
20.06.2013 15:20 28,5 C 48 % 1017,9 hPa 0,0 l/m 2,1 km/h (1 Bft) S 180 16,4 C 29,8 C 2,3 km/h (1 Bft)
20.06.2013 15:25 28,1 C 49 % 1017,6 hPa 0,0 l/m 1,8 km/h (1 Bft) S-SO 157 16,4 C 30,0 C 1,6 km/h (1 Bft)
20.06.2013 15:30 27,5 C 50 % 1017,6 hPa 0,0 l/m 1,1 km/h (1 Bft) O 90 16,1 C 29,8 C 0,0 km/h (0 Bft)
20.06.2013 15:35 26,9 C 52 % 1017,6 hPa 0,0 l/m 0,8 km/h (0 Bft) O 90 16,2 C 29,7 C 1,9 km/h (1 Bft)
20.06.2013 15:40 26,4 C 53 % 1017,6 hPa 0,0 l/m 1,8 km/h (1 Bft) O-SO 112 16,0 C 29,0 C 2,9 km/h (1 Bft)
20.06.2013 15:45 26,1 C 55 % 1016,9 hPa 0,0 l/m 2,3 km/h (1 Bft) O-NO 67 16,3 C 28,4 C 2,4 km/h (1 Bft)
20.06.2013 15:50 25,7 C 58 % 1016,9 hPa 0,0 l/m 1,6 km/h (1 Bft) NO 45 16,8 C 28,0 C 2,1 km/h (1 Bft)
20.06.2013 15:55 26,3 C 56 % 1016,9 hPa 0,0 l/m 1,1 km/h (1 Bft) O-NO 67 16,8 C 27,9 C 1,9 km/h (1 Bft)
20.06.2013 16:00 29,1 C 53 % 1016,9 hPa 0,0 l/m 0,8 km/h (0 Bft) S-SO 157 18,5 C 30,6 C 1,9 km/h (1 Bft)
20.06.2013 16:05 30,0 C 50 % 1016,7 hPa 0,0 l/m 0,5 km/h (0 Bft) S 180 18,4 C 32,0 C 2,9 km/h (1 Bft)
20.06.2013 16:10 30,6 C 44 % 1016,7 hPa 0,0 l/m 1,6 km/h (1 Bft) N 360 16,9 C 33,4 C 5,0 km/h (1 Bft)
20.06.2013 16:15 30,5 C 43 % 1016,7 hPa 0,0 l/m 2,6 km/h (1 Bft) W-NW 292 16,5 C 33,8 C 3,2 km/h (1 Bft)
20.06.2013 16:20 31,0 C 39 % 1016,7 hPa 0,0 l/m 4,3 km/h (1 Bft) S-SW 202 15,4 C 34,2 C 11,9 km/h (2 Bft)
20.06.2013 16:25 31,1 C 39 % 1016,2 hPa 0,0 l/m 4,8 km/h (1 Bft) W 270 15,5 C 34,3 C 8,2 km/h (2 Bft)
20.06.2013 16:30 30,8 C 40 % 1016,2 hPa 0,0 l/m 4,8 km/h (1 Bft) NW 315 15,6 C 34,0 C 3,2 km/h (1 Bft)
20.06.2013 16:35 30,7 C 41 % 1016,2 hPa 0,0 l/m 4,3 km/h (1 Bft) NW 315 15,9 C 34,1 C 4,5 km/h (1 Bft)
20.06.2013 16:40 30,1 C 43 % 1016,2 hPa 0,0 l/m 3,4 km/h (1 Bft) W-SW 247 16,1 C 33,6 C 4,5 km/h (1 Bft)
20.06.2013 16:45 29,5 C 42 % 1016,5 hPa 0,0 l/m 3,7 km/h (1 Bft) W-NW 292 15,2 C 33,1 C 3,5 km/h (1 Bft)
20.06.2013 16:50 28,4 C 46 % 1016,5 hPa 0,0 l/m 3,7 km/h (1 Bft) SW 225 15,6 C 31,2 C 6,6 km/h (2 Bft)
20.06.2013 16:55 28,0 C 48 % 1016,5 hPa 0,0 l/m 3,5 km/h (1 Bft) S 180 15,9 C 30,2 C 4,0 km/h (1 Bft)
20.06.2013 17:00 26,9 C 53 % 1016,5 hPa 0,0 l/m 4,3 km/h (1 Bft) W-SW 247 16,5 C 28,8 C 16,4 km/h (3 Bft)
20.06.2013 17:05 25,4 C 56 % 1016,1 hPa 0,0 l/m 9,0 km/h (2 Bft) S-SW 202 16,0 C 27,2 C 19,3 km/h (3 Bft)
20.06.2013 17:11 23,3 C 60 % 1016,1 hPa 0,0 l/m 14,5 km/h (3 Bft) S 180 15,1 C 23,3 C 33,5 km/h (5 Bft)
20.06.2013 17:15 22,4 C 64 % 1016,1 hPa 0,0 l/m 15,3 km/h (3 Bft) S 180 15,2 C 21,3 C 9,2 km/h (2 Bft)
20.06.2013 17:20 21,8 C 65 % 1016,1 hPa 0,0 l/m 13,7 km/h (3 Bft) S-SW 202 14,9 C 20,1 C 16,4 km/h (3 Bft)
20.06.2013 17:25 21,5 C 65 % 1016,4 hPa 0,0 l/m 10,8 km/h (2 Bft) S 180 14,6 C 20,1 C 10,3 km/h (2 Bft)
20.06.2013 17:30 21,1 C 65 % 1016,4 hPa 0,0 l/m 10,6 km/h (2 Bft) S 180 14,3 C 19,7 C 2,9 km/h (1 Bft)
20.06.2013 17:35 20,9 C 66 % 1016,4 hPa 0,0 l/m 9,0 km/h (2 Bft) S 180 14,3 C 20,1 C 10,9 km/h (2 Bft)
20.06.2013 17:40 20,7 C 67 % 1016,4 hPa 0,0 l/m 8,2 km/h (2 Bft) S 180 14,3 C 20,1 C 20,8 km/h (4 Bft)
20.06.2013 17:45 20,6 C 66 % 1016,7 hPa 0,0 l/m 10,0 km/h (2 Bft) S 180 14,0 C 19,4 C 8,0 km/h (2 Bft)
20.06.2013 17:50 20,5 C 68 % 1016,7 hPa 0,0 l/m 8,5 km/h (2 Bft) S-SO 157 14,4 C 19,8 C 7,9 km/h (2 Bft)
20.06.2013 17:55 20,5 C 70 % 1016,7 hPa 0,0 l/m 8,4 km/h (2 Bft) S 180 14,8 C 19,8 C 13,0 km/h (3 Bft)
20.06.2013 18:00 20,7 C 69 % 1016,7 hPa 0,0 l/m 9,7 km/h (2 Bft) O-SO 112 14,8 C 19,5 C 11,7 km/h (2 Bft)
20.06.2013 18:05 20,9 C 69 % 1016,3 hPa 0,0 l/m 8,2 km/h (2 Bft) S-SW 202 15,0 C 20,2 C 8,5 km/h (2 Bft)
20.06.2013 18:10 21,3 C 69 % 1016,3 hPa 0,0 l/m 9,2 km/h (2 Bft) SW 225 15,4 C 20,2 C 16,1 km/h (3 Bft)
20.06.2013 18:15 21,1 C 69 % 1016,3 hPa 0,0 l/m 10,6 km/h (2 Bft) S 180 15,2 C 19,5 C 15,9 km/h (3 Bft)
20.06.2013 18:20 21,1 C 68 % 1016,3 hPa 0,0 l/m 11,9 km/h (2 Bft) SO 135 15,0 C 19,1 C 22,0 km/h (4 Bft)
20.06.2013 18:25 21,3 C 68 % 1016,9 hPa 0,0 l/m 11,9 km/h (2 Bft) S-SW 202 15,1 C 19,3 C 7,2 km/h (2 Bft)
20.06.2013 18:30 21,2 C 67 % 1016,9 hPa 0,0 l/m 11,1 km/h (2 Bft) S 180 14,8 C 19,3 C 14,0 km/h (3 Bft)
20.06.2013 18:35 21,1 C 67 % 1016,9 hPa 0,0 l/m 10,6 km/h (2 Bft) W-SW 247 14,7 C 19,6 C 10,1 km/h (2 Bft)
20.06.2013 18:40 21,1 C 66 % 1016,9 hPa 0,0 l/m 8,7 km/h (2 Bft) S-SW 202 14,5 C 20,3 C 7,1 km/h (2 Bft)
20.06.2013 18:45 21,0 C 67 % 1017,2 hPa 0,0 l/m 6,9 km/h (2 Bft) W-SW 247 14,6 C 21,0 C 7,7 km/h (2 Bft)
20.06.2013 18:50 20,8 C 68 % 1017,2 hPa 0,0 l/m 6,0 km/h (2 Bft) S 180 14,7 C 21,2 C 7,1 km/h (2 Bft)
20.06.2013 18:55 20,7 C 68 % 1017,2 hPa 0,0 l/m 5,6 km/h (1 Bft) O 90 14,6 C 21,2 C 4,5 km/h (1 Bft)
20.06.2013 19:00 20,8 C 68 % 1017,2 hPa 0,0 l/m 4,2 km/h (1 Bft) S 180 14,7 C 21,2 C 5,3 km/h (1 Bft)
20.06.2013 19:05 20,8 C 68 % 1017,1 hPa 0,0 l/m 4,3 km/h (1 Bft) SO 135 14,7 C 21,3 C 4,5 km/h (1 Bft)
20.06.2013 19:10 20,7 C 68 % 1017,1 hPa 0,0 l/m 4,3 km/h (1 Bft) S-SO 157 14,6 C 21,3 C 7,2 km/h (2 Bft)
20.06.2013 19:15 20,7 C 68 % 1017,1 hPa 0,0 l/m 3,2 km/h (1 Bft) SO 135 14,6 C 21,3 C 0,0 km/h (0 Bft)
20.06.2013 19:20 20,9 C 67 % 1017,1 hPa 0,0 l/m 2,9 km/h (1 Bft) N 360 14,5 C 21,4 C 3,7 km/h (1 Bft)
20.06.2013 19:25 20,9 C 68 % 1016,8 hPa 0,0 l/m 2,6 km/h (1 Bft) S-SO 157 14,8 C 21,6 C 0,0 km/h (0 Bft)
20.06.2013 19:30 20,8 C 68 % 1016,8 hPa 0,0 l/m 1,6 km/h (1 Bft) S 180 14,7 C 21,9 C 2,6 km/h (1 Bft)
20.06.2013 19:35 20,7 C 68 % 1016,8 hPa 0,0 l/m 1,3 km/h (1 Bft) S-SO 157 14,6 C 21,9 C 2,9 km/h (1 Bft)
20.06.2013 19:40 20,4 C 69 % 1016,8 hPa 0,0 l/m 1,4 km/h (1 Bft) NO 45 14,5 C 21,5 C 0,0 km/h (0 Bft)
20.06.2013 19:45 20,0 C 70 % 1016,4 hPa 0,0 l/m 0,8 km/h (0 Bft) N-NO 22 14,4 C 21,3 C 0,0 km/h (0 Bft)
20.06.2013 19:50 19,9 C 69 % 1016,4 hPa 0,0 l/m 0,3 km/h (0 Bft) W-NW 292 14,0 C 20,9 C 0,0 km/h (0 Bft)
20.06.2013 19:55 19,9 C 70 % 1016,4 hPa 0,0 l/m 0,3 km/h (0 Bft) N 360 14,3 C 20,7 C 0,0 km/h (0 Bft)
20.06.2013 20:00 19,9 C 70 % 1016,4 hPa 0,0 l/m 1,1 km/h (1 Bft) SO 135 14,3 C 20,7 C 3,1 km/h (1 Bft)
20.06.2013 20:05 19,8 C 71 % 1016,6 hPa 0,0 l/m 2,1 km/h (1 Bft) O-SO 112 14,4 C 20,7 C 2,7 km/h (1 Bft)
20.06.2013 20:11 19,4 C 71 % 1016,6 hPa 0,0 l/m 1,6 km/h (1 Bft) O 90 14,0 C 20,6 C 0,0 km/h (0 Bft)
20.06.2013 20:15 19,1 C 72 % 1016,6 hPa 0,0 l/m 0,8 km/h (0 Bft) O 90 13,9 C 20,4 C 0,0 km/h (0 Bft)
20.06.2013 20:20 19,0 C 74 % 1016,6 hPa 0,0 l/m 0,2 km/h (0 Bft) NO 45 14,3 C 20,1 C 1,8 km/h (1 Bft)
20.06.2013 20:25 18,9 C 74 % 1016,6 hPa 0,0 l/m 0,8 km/h (0 Bft) O 90 14,2 C 19,9 C 1,6 km/h (1 Bft)
20.06.2013 20:30 18,9 C 75 % 1016,6 hPa 0,0 l/m 2,1 km/h (1 Bft) NO 45 14,4 C 19,5 C 3,4 km/h (1 Bft)
20.06.2013 20:35 18,8 C 75 % 1016,6 hPa 0,0 l/m 2,7 km/h (1 Bft) O-SO 112 14,3 C 19,3 C 3,1 km/h (1 Bft)
20.06.2013 20:40 18,4 C 75 % 1016,6 hPa 0,0 l/m 2,4 km/h (1 Bft) SO 135 13,9 C 19,0 C 0,0 km/h (0 Bft)
20.06.2013 20:45 18,1 C 75 % 1016,1 hPa 0,0 l/m 1,1 km/h (1 Bft) W-SW 247 13,6 C 18,7 C 0,0 km/h (0 Bft)
20.06.2013 20:50 17,8 C 76 % 1016,1 hPa 0,0 l/m 0,3 km/h (0 Bft) O 90 13,5 C 18,3 C 2,3 km/h (1 Bft)
20.06.2013 20:55 17,8 C 77 % 1016,1 hPa 0,0 l/m 1,0 km/h (0 Bft) O-NO 67 13,7 C 18,1 C 2,1 km/h (1 Bft)
20.06.2013 21:00 17,6 C 77 % 1016,1 hPa 0,0 l/m 1,4 km/h (1 Bft) W-NW 292 13,5 C 17,8 C 0,0 km/h (0 Bft)
20.06.2013 21:05 17,5 C 78 % 1016,1 hPa 0,0 l/m 1,0 km/h (0 Bft) O 90 13,6 C 17,6 C 3,1 km/h (1 Bft)
20.06.2013 21:15 17,5 C 79 % 1016,1 hPa 0,0 l/m 2,6 km/h (1 Bft) NO 45 13,8 C 17,5 C 0,0 km/h (0 Bft)
20.06.2013 21:20 16,9 C 78 % 1016,1 hPa 0,0 l/m 0,6 km/h (0 Bft) S 180 13,0 C 17,1 C 0,0 km/h (0 Bft)
20.06.2013 21:25 17,2 C 80 % 1015,9 hPa 0,0 l/m 1,1 km/h (1 Bft) NO 45 13,7 C 17,0 C 4,5 km/h (1 Bft)
20.06.2013 21:30 17,0 C 79 % 1015,9 hPa 0,0 l/m 2,1 km/h (1 Bft) O-SO 112 13,3 C 17,0 C 0,0 km/h (0 Bft)
20.06.2013 21:35 16,6 C 79 % 1015,9 hPa 0,0 l/m 1,4 km/h (1 Bft) N-NO 22 12,9 C 16,8 C 0,0 km/h (0 Bft)
20.06.2013 21:40 16,5 C 80 % 1015,9 hPa 0,0 l/m 0,2 km/h (0 Bft) O 90 13,0 C 16,4 C 2,1 km/h (1 Bft)
20.06.2013 21:45 16,7 C 80 % 1015,8 hPa 0,0 l/m 1,3 km/h (1 Bft) NO 45 13,2 C 16,3 C 3,5 km/h (1 Bft)
20.06.2013 21:50 16,7 C 79 % 1015,8 hPa 0,0 l/m 2,1 km/h (1 Bft) O-SO 112 13,0 C 16,5 C 0,0 km/h (0 Bft)
20.06.2013 21:55 16,4 C 79 % 1015,8 hPa 0,0 l/m 1,0 km/h (0 Bft) S 180 12,7 C 16,5 C 0,0 km/h (0 Bft)
20.06.2013 22:00 16,6 C 80 % 1015,8 hPa 0,0 l/m 0,6 km/h (0 Bft) O 90 13,1 C 16,3 C 4,3 km/h (1 Bft)
20.06.2013 22:05 16,8 C 80 % 1015,8 hPa 0,0 l/m 1,9 km/h (1 Bft) O-SO 112 13,3 C 16,4 C 1,8 km/h (1 Bft)
20.06.2013 22:10 16,3 C 79 % 1015,8 hPa 0,0 l/m 1,6 km/h (1 Bft) O-SO 112 12,6 C 16,5 C 0,0 km/h (0 Bft)
20.06.2013 22:15 16,3 C 79 % 1015,8 hPa 0,0 l/m 0,3 km/h (0 Bft) W-SW 247 12,6 C 16,3 C 1,8 km/h (1 Bft)
20.06.2013 22:20 16,3 C 81 % 1015,8 hPa 0,0 l/m 1,0 km/h (0 Bft) NO 45 13,0 C 16,1 C 3,1 km/h (1 Bft)
20.06.2013 22:25 16,5 C 80 % 1015,9 hPa 0,0 l/m 1,9 km/h (1 Bft) O 90 13,0 C 16,1 C 2,9 km/h (1 Bft)
20.06.2013 22:30 16,1 C 79 % 1015,9 hPa 0,0 l/m 1,6 km/h (1 Bft) O 90 12,5 C 16,1 C 2,3 km/h (1 Bft)
20.06.2013 22:35 16,5 C 79 % 1015,9 hPa 0,0 l/m 1,4 km/h (1 Bft) NO 45 12,8 C 16,1 C 4,3 km/h (1 Bft)
20.06.2013 22:40 16,6 C 78 % 1015,9 hPa 0,0 l/m 1,6 km/h (1 Bft) O-NO 67 12,7 C 16,3 C 2,6 km/h (1 Bft)
20.06.2013 22:45 16,7 C 78 % 1016,2 hPa 0,0 l/m 1,3 km/h (1 Bft) O-NO 67 12,8 C 16,4 C 2,9 km/h (1 Bft)
20.06.2013 22:50 16,9 C 77 % 1016,2 hPa 0,0 l/m 1,3 km/h (1 Bft) O 90 12,8 C 16,7 C 1,8 km/h (1 Bft)
20.06.2013 22:55 17,0 C 77 % 1016,2 hPa 0,0 l/m 1,3 km/h (1 Bft) O-SO 112 12,9 C 16,8 C 2,4 km/h (1 Bft)
20.06.2013 23:00 17,3 C 76 % 1016,2 hPa 0,0 l/m 1,4 km/h (1 Bft) S 180 13,0 C 17,0 C 5,8 km/h (2 Bft)
20.06.2013 23:05 17,4 C 75 % 1017,3 hPa 0,0 l/m 3,9 km/h (1 Bft) SO 135 12,9 C 17,3 C 14,3 km/h (3 Bft)
20.06.2013 23:11 17,7 C 77 % 1017,3 hPa 0,0 l/m 8,2 km/h (2 Bft) S-SO 157 13,6 C 17,0 C 15,6 km/h (3 Bft)
20.06.2013 23:15 17,8 C 78 % 1017,3 hPa 0,0 l/m 9,7 km/h (2 Bft) O-SO 112 13,9 C 16,5 C 14,8 km/h (3 Bft)
20.06.2013 23:20 17,6 C 79 % 1017,3 hPa 0,0 l/m 10,6 km/h (2 Bft) SO 135 13,9 C 16,0 C 7,7 km/h (2 Bft)
20.06.2013 23:25 17,4 C 79 % 1017,5 hPa 0,0 l/m 10,3 km/h (2 Bft) S 180 13,7 C 15,9 C 9,5 km/h (2 Bft)
20.06.2013 23:30 17,1 C 75 % 1017,5 hPa 0,0 l/m 13,2 km/h (3 Bft) O-SO 112 12,6 C 14,4 C 35,7 km/h (5 Bft)
20.06.2013 23:35 16,9 C 75 % 1017,5 hPa 0,0 l/m 15,0 km/h (3 Bft) S 180 12,4 C 13,4 C 17,9 km/h (3 Bft)
20.06.2013 23:40 16,5 C 73 % 1017,5 hPa 0,0 l/m 14,8 km/h (3 Bft) S 180 11,6 C 12,8 C 24,3 km/h (4 Bft)
20.06.2013 23:45 16,4 C 72 % 1018,1 hPa 0,0 l/m 14,8 km/h (3 Bft) S-SO 157 11,3 C 12,6 C 15,0 km/h (3 Bft)
20.06.2013 23:50 16,2 C 70 % 1018,1 hPa 0,0 l/m 16,4 km/h (3 Bft) S 180 10,7 C 11,6 C 30,1 km/h (5 Bft)
20.06.2013 23:55 16,1 C 70 % 1018,1 hPa 0,0 l/m 15,6 km/h (3 Bft) SO 135 10,6 C 11,7 C 12,9 km/h (3 Bft)
_ Min-Zeit 05:00 11:50 22:20 - 05:00 - - 23:55 23:50 22:10
Minimum _ 15,7 C 28 % 1015,8 hPa - 0,0 km/h (0 Bft) - - 10,6 C 11,6 C 0,0 km/h (0 Bft)
_ Max-Zeit 11:50 22:20 12:20 23:55 23:50 - - 16:00 14:20 23:30
Maximum _ 33,7 C 81 % 1019,5 hPa 0,0 l/m 16,4 km/h
S (3 Bft)
- - 18,5 C 35,3 C 35,7 km/h
O-SO (5 Bft)
Durchschnitt _ 23,9 C 57 % 1017,7 hPa #0,0 l/m 2,8 km/h (1 Bft) S - 13,9 C 24,4 C 3,8 km/h (1 Bft)